sensor_id;sensor_type;location;lat;lon;timestamp;temperature;humidity
21445;DHT22;10883;51.946;20.140;2023-01-31T00:01:23;3.30;99.90
21445;DHT22;10883;51.946;20.140;2023-01-31T00:03:54;3.30;99.90
21445;DHT22;10883;51.946;20.140;2023-01-31T00:06:25;3.30;99.90
21445;DHT22;10883;51.946;20.140;2023-01-31T00:08:52;3.30;99.90
21445;DHT22;10883;51.946;20.140;2023-01-31T00:11:20;3.30;99.90
21445;DHT22;10883;51.946;20.140;2023-01-31T00:13:47;3.30;99.90
21445;DHT22;10883;51.946;20.140;2023-01-31T00:16:14;3.30;99.90
21445;DHT22;10883;51.946;20.140;2023-01-31T00:18:40;3.30;99.90
21445;DHT22;10883;51.946;20.140;2023-01-31T00:21:22;3.40;99.90
21445;DHT22;10883;51.946;20.140;2023-01-31T00:23:49;3.40;99.90
21445;DHT22;10883;51.946;20.140;2023-01-31T00:26:37;3.40;99.90
21445;DHT22;10883;51.946;20.140;2023-01-31T00:29:04;3.40;99.90
21445;DHT22;10883;51.946;20.140;2023-01-31T00:31:32;3.40;99.90
21445;DHT22;10883;51.946;20.140;2023-01-31T00:33:58;3.40;99.90
21445;DHT22;10883;51.946;20.140;2023-01-31T00:36:28;3.40;99.90
21445;DHT22;10883;51.946;20.140;2023-01-31T00:38:56;3.40;99.90
21445;DHT22;10883;51.946;20.140;2023-01-31T00:41:23;3.40;99.90
21445;DHT22;10883;51.946;20.140;2023-01-31T00:43:50;3.40;99.90
21445;DHT22;10883;51.946;20.140;2023-01-31T00:46:16;3.40;99.90
21445;DHT22;10883;51.946;20.140;2023-01-31T00:48:44;3.40;99.90
21445;DHT22;10883;51.946;20.140;2023-01-31T00:51:10;3.40;99.90
21445;DHT22;10883;51.946;20.140;2023-01-31T00:53:36;3.40;99.90
21445;DHT22;10883;51.946;20.140;2023-01-31T00:56:05;3.50;99.90
21445;DHT22;10883;51.946;20.140;2023-01-31T00:58:32;3.50;99.90
21445;DHT22;10883;51.946;20.140;2023-01-31T01:03:35;3.50;99.90
21445;DHT22;10883;51.946;20.140;2023-01-31T01:06:01;3.50;99.90
21445;DHT22;10883;51.946;20.140;2023-01-31T01:08:28;3.50;99.90
21445;DHT22;10883;51.946;20.140;2023-01-31T01:10:53;3.50;99.90
21445;DHT22;10883;51.946;20.140;2023-01-31T01:13:19;3.50;99.90
21445;DHT22;10883;51.946;20.140;2023-01-31T01:15:45;3.50;99.90
21445;DHT22;10883;51.946;20.140;2023-01-31T01:18:11;3.60;99.90
21445;DHT22;10883;51.946;20.140;2023-01-31T01:20:36;3.60;99.90
21445;DHT22;10883;51.946;20.140;2023-01-31T01:23:02;3.60;99.90
21445;DHT22;10883;51.946;20.140;2023-01-31T01:25:28;3.60;99.90
21445;DHT22;10883;51.946;20.140;2023-01-31T01:27:53;3.50;99.90
21445;DHT22;10883;51.946;20.140;2023-01-31T01:30:19;3.50;99.90
21445;DHT22;10883;51.946;20.140;2023-01-31T01:32:46;3.50;99.90
21445;DHT22;10883;51.946;20.140;2023-01-31T01:35:11;3.50;99.90
21445;DHT22;10883;51.946;20.140;2023-01-31T01:37:37;3.50;99.90
21445;DHT22;10883;51.946;20.140;2023-01-31T01:40:03;3.60;99.90
21445;DHT22;10883;51.946;20.140;2023-01-31T01:42:33;3.50;99.90
21445;DHT22;10883;51.946;20.140;2023-01-31T01:45:10;3.50;99.90
21445;DHT22;10883;51.946;20.140;2023-01-31T01:47:45;3.50;99.90
21445;DHT22;10883;51.946;20.140;2023-01-31T01:58:07;3.50;99.90
21445;DHT22;10883;51.946;20.140;2023-01-31T02:00:35;3.50;99.90
21445;DHT22;10883;51.946;20.140;2023-01-31T02:03:04;3.50;99.90
21445;DHT22;10883;51.946;20.140;2023-01-31T02:05:46;3.50;99.90
21445;DHT22;10883;51.946;20.140;2023-01-31T02:08:14;3.50;99.90
21445;DHT22;10883;51.946;20.140;2023-01-31T02:10:59;3.50;99.90
21445;DHT22;10883;51.946;20.140;2023-01-31T02:13:27;3.50;99.90
21445;DHT22;10883;51.946;20.140;2023-01-31T02:15:54;3.50;99.90
21445;DHT22;10883;51.946;20.140;2023-01-31T02:18:21;3.50;99.90
21445;DHT22;10883;51.946;20.140;2023-01-31T02:34:45;3.60;99.90
21445;DHT22;10883;51.946;20.140;2023-01-31T02:37:36;3.60;99.90
21445;DHT22;10883;51.946;20.140;2023-01-31T02:40:27;3.60;99.90
21445;DHT22;10883;51.946;20.140;2023-01-31T02:43:04;3.60;99.90
21445;DHT22;10883;51.946;20.140;2023-01-31T02:45:36;3.60;99.90
21445;DHT22;10883;51.946;20.140;2023-01-31T02:48:17;3.60;99.90
21445;DHT22;10883;51.946;20.140;2023-01-31T02:51:22;3.60;99.90
21445;DHT22;10883;51.946;20.140;2023-01-31T02:54:10;3.60;99.90
21445;DHT22;10883;51.946;20.140;2023-01-31T02:56:40;3.60;99.90
21445;DHT22;10883;51.946;20.140;2023-01-31T02:59:25;3.60;99.90
21445;DHT22;10883;51.946;20.140;2023-01-31T03:02:01;3.60;99.90
21445;DHT22;10883;51.946;20.140;2023-01-31T03:04:32;3.60;99.90
21445;DHT22;10883;51.946;20.140;2023-01-31T03:07:06;3.60;99.90
21445;DHT22;10883;51.946;20.140;2023-01-31T03:12:46;3.60;99.90
21445;DHT22;10883;51.946;20.140;2023-01-31T03:18:04;3.60;99.90
21445;DHT22;10883;51.946;20.140;2023-01-31T03:20:38;3.60;99.90
21445;DHT22;10883;51.946;20.140;2023-01-31T03:23:21;3.60;99.90
21445;DHT22;10883;51.946;20.140;2023-01-31T03:25:48;3.60;99.90
21445;DHT22;10883;51.946;20.140;2023-01-31T03:28:20;3.60;99.90
21445;DHT22;10883;51.946;20.140;2023-01-31T03:33:38;3.60;99.90
21445;DHT22;10883;51.946;20.140;2023-01-31T03:36:37;3.60;99.90
21445;DHT22;10883;51.946;20.140;2023-01-31T03:45:14;3.60;99.90
21445;DHT22;10883;51.946;20.140;2023-01-31T03:47:44;3.60;99.90
21445;DHT22;10883;51.946;20.140;2023-01-31T03:50:18;3.50;99.90
21445;DHT22;10883;51.946;20.140;2023-01-31T03:52:59;3.50;99.90
21445;DHT22;10883;51.946;20.140;2023-01-31T03:55:34;3.60;99.90
21445;DHT22;10883;51.946;20.140;2023-01-31T03:58:04;3.50;99.90
21445;DHT22;10883;51.946;20.140;2023-01-31T04:00:33;3.50;99.90
21445;DHT22;10883;51.946;20.140;2023-01-31T04:03:09;3.50;99.90
21445;DHT22;10883;51.946;20.140;2023-01-31T04:05:36;3.50;99.90
21445;DHT22;10883;51.946;20.140;2023-01-31T04:08:01;3.50;99.90
21445;DHT22;10883;51.946;20.140;2023-01-31T04:10:27;3.50;99.90
21445;DHT22;10883;51.946;20.140;2023-01-31T04:12:53;3.50;99.90
21445;DHT22;10883;51.946;20.140;2023-01-31T04:15:19;3.50;99.90
21445;DHT22;10883;51.946;20.140;2023-01-31T04:17:45;3.50;99.90
21445;DHT22;10883;51.946;20.140;2023-01-31T04:20:11;3.50;99.90
21445;DHT22;10883;51.946;20.140;2023-01-31T04:22:38;3.50;99.90
21445;DHT22;10883;51.946;20.140;2023-01-31T04:25:04;3.50;99.90
21445;DHT22;10883;51.946;20.140;2023-01-31T04:27:30;3.50;99.90
21445;DHT22;10883;51.946;20.140;2023-01-31T04:29:56;3.50;99.90
21445;DHT22;10883;51.946;20.140;2023-01-31T04:32:22;3.50;99.90
21445;DHT22;10883;51.946;20.140;2023-01-31T04:34:48;3.50;99.90
21445;DHT22;10883;51.946;20.140;2023-01-31T04:37:15;3.50;99.90
21445;DHT22;10883;51.946;20.140;2023-01-31T04:39:40;3.50;99.90
21445;DHT22;10883;51.946;20.140;2023-01-31T04:42:06;3.40;99.90
21445;DHT22;10883;51.946;20.140;2023-01-31T04:44:32;3.50;99.90
21445;DHT22;10883;51.946;20.140;2023-01-31T04:46:58;3.40;99.90
21445;DHT22;10883;51.946;20.140;2023-01-31T04:49:23;3.40;99.90
21445;DHT22;10883;51.946;20.140;2023-01-31T04:51:49;3.40;99.90
21445;DHT22;10883;51.946;20.140;2023-01-31T04:54:15;3.40;99.90
21445;DHT22;10883;51.946;20.140;2023-01-31T04:56:41;3.40;99.90
21445;DHT22;10883;51.946;20.140;2023-01-31T04:59:06;3.40;99.90
21445;DHT22;10883;51.946;20.140;2023-01-31T05:01:32;3.40;99.90
21445;DHT22;10883;51.946;20.140;2023-01-31T05:03:58;3.30;99.90
21445;DHT22;10883;51.946;20.140;2023-01-31T05:06:24;3.30;99.90
21445;DHT22;10883;51.946;20.140;2023-01-31T05:08:49;3.40;99.90
21445;DHT22;10883;51.946;20.140;2023-01-31T05:11:19;3.30;99.90
21445;DHT22;10883;51.946;20.140;2023-01-31T05:13:45;3.30;99.90
21445;DHT22;10883;51.946;20.140;2023-01-31T05:16:12;3.30;99.90
21445;DHT22;10883;51.946;20.140;2023-01-31T05:18:38;3.30;99.90
21445;DHT22;10883;51.946;20.140;2023-01-31T05:21:05;3.20;99.90
21445;DHT22;10883;51.946;20.140;2023-01-31T05:23:32;3.30;99.90
21445;DHT22;10883;51.946;20.140;2023-01-31T05:25:58;3.20;99.90
21445;DHT22;10883;51.946;20.140;2023-01-31T05:28:24;3.20;99.90
21445;DHT22;10883;51.946;20.140;2023-01-31T05:30:59;3.20;99.90
21445;DHT22;10883;51.946;20.140;2023-01-31T05:33:25;3.20;99.90
21445;DHT22;10883;51.946;20.140;2023-01-31T05:35:52;3.20;99.90
21445;DHT22;10883;51.946;20.140;2023-01-31T05:38:18;3.20;99.90
21445;DHT22;10883;51.946;20.140;2023-01-31T05:40:44;3.20;99.90
21445;DHT22;10883;51.946;20.140;2023-01-31T05:43:09;3.20;99.90
21445;DHT22;10883;51.946;20.140;2023-01-31T05:45:35;3.20;99.90
21445;DHT22;10883;51.946;20.140;2023-01-31T05:48:01;3.20;99.90
21445;DHT22;10883;51.946;20.140;2023-01-31T05:50:27;3.20;99.90
21445;DHT22;10883;51.946;20.140;2023-01-31T05:52:59;3.20;99.90
21445;DHT22;10883;51.946;20.140;2023-01-31T05:55:27;3.20;99.90
21445;DHT22;10883;51.946;20.140;2023-01-31T05:57:53;3.20;99.90
21445;DHT22;10883;51.946;20.140;2023-01-31T06:00:20;3.20;99.90
21445;DHT22;10883;51.946;20.140;2023-01-31T06:02:46;3.20;99.90
21445;DHT22;10883;51.946;20.140;2023-01-31T06:05:13;3.20;99.90
21445;DHT22;10883;51.946;20.140;2023-01-31T06:07:39;3.10;99.90
21445;DHT22;10883;51.946;20.140;2023-01-31T06:10:07;3.10;99.90
21445;DHT22;10883;51.946;20.140;2023-01-31T06:12:33;3.20;99.90
21445;DHT22;10883;51.946;20.140;2023-01-31T06:14:59;3.10;99.90
21445;DHT22;10883;51.946;20.140;2023-01-31T06:17:25;3.10;99.90
21445;DHT22;10883;51.946;20.140;2023-01-31T06:19:51;3.10;99.90
21445;DHT22;10883;51.946;20.140;2023-01-31T06:22:18;3.20;99.90
21445;DHT22;10883;51.946;20.140;2023-01-31T06:24:43;3.10;99.90
21445;DHT22;10883;51.946;20.140;2023-01-31T06:27:09;3.20;99.90
21445;DHT22;10883;51.946;20.140;2023-01-31T06:29:35;3.20;99.90
21445;DHT22;10883;51.946;20.140;2023-01-31T06:32:01;3.20;99.90
21445;DHT22;10883;51.946;20.140;2023-01-31T06:34:26;3.20;99.90
21445;DHT22;10883;51.946;20.140;2023-01-31T06:36:52;3.20;99.90
21445;DHT22;10883;51.946;20.140;2023-01-31T06:39:18;3.20;99.90
21445;DHT22;10883;51.946;20.140;2023-01-31T06:41:44;3.20;99.90
21445;DHT22;10883;51.946;20.140;2023-01-31T06:44:10;3.20;99.90
21445;DHT22;10883;51.946;20.140;2023-01-31T06:46:36;3.20;99.90
21445;DHT22;10883;51.946;20.140;2023-01-31T06:49:02;3.20;99.90
21445;DHT22;10883;51.946;20.140;2023-01-31T06:51:27;3.20;99.90
21445;DHT22;10883;51.946;20.140;2023-01-31T06:53:53;3.20;99.90
21445;DHT22;10883;51.946;20.140;2023-01-31T06:56:21;3.20;99.90
21445;DHT22;10883;51.946;20.140;2023-01-31T06:58:46;3.20;99.90
21445;DHT22;10883;51.946;20.140;2023-01-31T07:01:13;3.30;99.90
21445;DHT22;10883;51.946;20.140;2023-01-31T07:06:53;3.30;99.90
21445;DHT22;10883;51.946;20.140;2023-01-31T07:09:19;3.30;99.90
21445;DHT22;10883;51.946;20.140;2023-01-31T07:11:45;3.30;99.90
21445;DHT22;10883;51.946;20.140;2023-01-31T07:14:11;3.30;99.90
21445;DHT22;10883;51.946;20.140;2023-01-31T07:16:36;3.30;99.90
21445;DHT22;10883;51.946;20.140;2023-01-31T07:19:02;3.30;99.90
21445;DHT22;10883;51.946;20.140;2023-01-31T07:21:28;3.30;99.90
21445;DHT22;10883;51.946;20.140;2023-01-31T07:23:54;3.40;99.90
21445;DHT22;10883;51.946;20.140;2023-01-31T07:26:20;3.40;99.90
21445;DHT22;10883;51.946;20.140;2023-01-31T07:28:46;3.50;99.90
21445;DHT22;10883;51.946;20.140;2023-01-31T07:31:13;3.50;99.90
21445;DHT22;10883;51.946;20.140;2023-01-31T07:33:39;3.50;99.90
21445;DHT22;10883;51.946;20.140;2023-01-31T07:36:07;3.50;99.90
21445;DHT22;10883;51.946;20.140;2023-01-31T07:38:34;3.50;99.90
21445;DHT22;10883;51.946;20.140;2023-01-31T07:41:01;3.50;99.90
21445;DHT22;10883;51.946;20.140;2023-01-31T07:43:28;3.60;99.90
21445;DHT22;10883;51.946;20.140;2023-01-31T07:45:54;3.80;99.90
21445;DHT22;10883;51.946;20.140;2023-01-31T07:48:20;3.80;99.90
21445;DHT22;10883;51.946;20.140;2023-01-31T07:50:52;3.70;99.90
21445;DHT22;10883;51.946;20.140;2023-01-31T07:53:22;3.70;99.90
21445;DHT22;10883;51.946;20.140;2023-01-31T07:55:47;3.70;99.90
21445;DHT22;10883;51.946;20.140;2023-01-31T07:58:14;3.70;99.90
21445;DHT22;10883;51.946;20.140;2023-01-31T08:00:41;3.70;99.90
21445;DHT22;10883;51.946;20.140;2023-01-31T08:03:28;3.70;99.90
21445;DHT22;10883;51.946;20.140;2023-01-31T08:08:29;3.70;99.90
21445;DHT22;10883;51.946;20.140;2023-01-31T08:10:55;3.70;99.90
21445;DHT22;10883;51.946;20.140;2023-01-31T08:13:21;3.70;99.90
21445;DHT22;10883;51.946;20.140;2023-01-31T08:15:49;3.70;99.90
21445;DHT22;10883;51.946;20.140;2023-01-31T08:18:15;3.70;99.90
21445;DHT22;10883;51.946;20.140;2023-01-31T08:20:41;3.80;99.90
21445;DHT22;10883;51.946;20.140;2023-01-31T08:23:06;3.90;99.90
21445;DHT22;10883;51.946;20.140;2023-01-31T08:25:32;3.90;99.90
21445;DHT22;10883;51.946;20.140;2023-01-31T08:27:59;4.10;99.90
21445;DHT22;10883;51.946;20.140;2023-01-31T08:30:25;4.20;99.90
21445;DHT22;10883;51.946;20.140;2023-01-31T08:32:50;4.40;99.90
21445;DHT22;10883;51.946;20.140;2023-01-31T08:35:16;4.50;99.90
21445;DHT22;10883;51.946;20.140;2023-01-31T08:37:42;4.60;99.90
21445;DHT22;10883;51.946;20.140;2023-01-31T08:40:08;4.90;99.90
21445;DHT22;10883;51.946;20.140;2023-01-31T08:42:34;5.60;99.90
21445;DHT22;10883;51.946;20.140;2023-01-31T08:45:00;6.20;99.90
21445;DHT22;10883;51.946;20.140;2023-01-31T08:47:26;6.60;99.90
21445;DHT22;10883;51.946;20.140;2023-01-31T08:49:51;6.90;99.90
21445;DHT22;10883;51.946;20.140;2023-01-31T08:52:17;7.10;99.90
21445;DHT22;10883;51.946;20.140;2023-01-31T08:54:43;7.50;99.90
21445;DHT22;10883;51.946;20.140;2023-01-31T08:57:09;7.60;99.90
21445;DHT22;10883;51.946;20.140;2023-01-31T08:59:34;7.70;99.90
21445;DHT22;10883;51.946;20.140;2023-01-31T09:02:01;7.90;99.90
21445;DHT22;10883;51.946;20.140;2023-01-31T09:04:26;8.10;99.90
21445;DHT22;10883;51.946;20.140;2023-01-31T09:06:52;8.30;99.90
21445;DHT22;10883;51.946;20.140;2023-01-31T09:09:19;8.30;99.90
21445;DHT22;10883;51.946;20.140;2023-01-31T09:11:45;8.30;99.90
21445;DHT22;10883;51.946;20.140;2023-01-31T09:14:11;8.60;99.90
21445;DHT22;10883;51.946;20.140;2023-01-31T09:16:37;8.80;99.90
21445;DHT22;10883;51.946;20.140;2023-01-31T09:19:03;9.20;99.90
21445;DHT22;10883;51.946;20.140;2023-01-31T09:21:28;9.40;99.90
21445;DHT22;10883;51.946;20.140;2023-01-31T09:23:59;9.80;99.90
21445;DHT22;10883;51.946;20.140;2023-01-31T09:26:29;10.20;99.90
21445;DHT22;10883;51.946;20.140;2023-01-31T09:28:54;10.30;99.90
21445;DHT22;10883;51.946;20.140;2023-01-31T09:31:22;10.30;99.90
21445;DHT22;10883;51.946;20.140;2023-01-31T09:33:48;9.80;99.90
21445;DHT22;10883;51.946;20.140;2023-01-31T09:36:17;9.40;99.90
21445;DHT22;10883;51.946;20.140;2023-01-31T09:38:43;8.60;99.90
21445;DHT22;10883;51.946;20.140;2023-01-31T09:44:20;7.90;99.90
21445;DHT22;10883;51.946;20.140;2023-01-31T09:46:53;7.10;99.90
21445;DHT22;10883;51.946;20.140;2023-01-31T09:49:29;6.60;99.90
21445;DHT22;10883;51.946;20.140;2023-01-31T09:52:01;6.40;99.90
21445;DHT22;10883;51.946;20.140;2023-01-31T09:54:35;6.50;99.90
21445;DHT22;10883;51.946;20.140;2023-01-31T09:59:58;6.30;99.90
21445;DHT22;10883;51.946;20.140;2023-01-31T10:05:18;6.50;99.90
21445;DHT22;10883;51.946;20.140;2023-01-31T10:10:37;6.40;99.90
21445;DHT22;10883;51.946;20.140;2023-01-31T10:13:11;6.20;99.90
21445;DHT22;10883;51.946;20.140;2023-01-31T10:15:45;5.70;99.90
21445;DHT22;10883;51.946;20.140;2023-01-31T10:20:43;5.40;99.90
21445;DHT22;10883;51.946;20.140;2023-01-31T10:23:16;5.50;99.90
21445;DHT22;10883;51.946;20.140;2023-01-31T10:28:25;5.70;99.90
21445;DHT22;10883;51.946;20.140;2023-01-31T10:39:05;5.70;99.90
21445;DHT22;10883;51.946;20.140;2023-01-31T10:42:38;5.70;99.90
21445;DHT22;10883;51.946;20.140;2023-01-31T10:47:21;5.90;99.90
21445;DHT22;10883;51.946;20.140;2023-01-31T10:49:48;5.70;99.90
21445;DHT22;10883;51.946;20.140;2023-01-31T10:57:36;5.90;99.90
21445;DHT22;10883;51.946;20.140;2023-01-31T11:00:03;5.90;99.90
21445;DHT22;10883;51.946;20.140;2023-01-31T11:02:30;5.90;99.90
21445;DHT22;10883;51.946;20.140;2023-01-31T11:04:58;5.60;99.90
21445;DHT22;10883;51.946;20.140;2023-01-31T11:07:28;5.40;99.90
21445;DHT22;10883;51.946;20.140;2023-01-31T11:09:54;5.60;99.90
21445;DHT22;10883;51.946;20.140;2023-01-31T11:12:41;5.80;99.90
21445;DHT22;10883;51.946;20.140;2023-01-31T11:15:16;6.00;99.90
21445;DHT22;10883;51.946;20.140;2023-01-31T11:17:43;6.10;99.90
21445;DHT22;10883;51.946;20.140;2023-01-31T11:20:24;6.20;99.90
21445;DHT22;10883;51.946;20.140;2023-01-31T11:22:52;6.60;99.90
21445;DHT22;10883;51.946;20.140;2023-01-31T11:25:21;6.70;99.90
21445;DHT22;10883;51.946;20.140;2023-01-31T11:27:48;6.60;99.90
21445;DHT22;10883;51.946;20.140;2023-01-31T11:30:24;6.60;99.90
21445;DHT22;10883;51.946;20.140;2023-01-31T11:32:52;6.20;99.90
21445;DHT22;10883;51.946;20.140;2023-01-31T11:37:53;6.00;99.90
21445;DHT22;10883;51.946;20.140;2023-01-31T11:42:57;6.10;99.90
21445;DHT22;10883;51.946;20.140;2023-01-31T11:45:31;6.00;99.90
21445;DHT22;10883;51.946;20.140;2023-01-31T11:50:57;6.40;99.90
21445;DHT22;10883;51.946;20.140;2023-01-31T11:53:37;6.40;99.90
21445;DHT22;10883;51.946;20.140;2023-01-31T11:56:16;6.20;99.90
21445;DHT22;10883;51.946;20.140;2023-01-31T11:58:43;6.70;99.90
21445;DHT22;10883;51.946;20.140;2023-01-31T12:03:37;9.00;99.90
21445;DHT22;10883;51.946;20.140;2023-01-31T12:06:09;9.70;99.30
21445;DHT22;10883;51.946;20.140;2023-01-31T12:08:53;10.20;96.60
21445;DHT22;10883;51.946;20.140;2023-01-31T12:13:53;7.70;99.40
21445;DHT22;10883;51.946;20.140;2023-01-31T12:16:26;7.90;99.90
21445;DHT22;10883;51.946;20.140;2023-01-31T12:32:35;10.70;91.40
21445;DHT22;10883;51.946;20.140;2023-01-31T12:46:33;8.90;92.90
21445;DHT22;10883;51.946;20.140;2023-01-31T13:05:58;5.40;99.90
21445;DHT22;10883;51.946;20.140;2023-01-31T13:08:30;6.20;99.90
21445;DHT22;10883;51.946;20.140;2023-01-31T13:10:59;7.00;99.90
21445;DHT22;10883;51.946;20.140;2023-01-31T13:13:40;8.30;99.90
21445;DHT22;10883;51.946;20.140;2023-01-31T13:16:21;9.10;99.90
21445;DHT22;10883;51.946;20.140;2023-01-31T13:18:50;11.30;98.80
21445;DHT22;10883;51.946;20.140;2023-01-31T13:21:21;13.60;91.90
21445;DHT22;10883;51.946;20.140;2023-01-31T13:24:05;13.20;88.50
21445;DHT22;10883;51.946;20.140;2023-01-31T13:26:39;12.80;88.70
21445;DHT22;10883;51.946;20.140;2023-01-31T13:37:44;8.00;96.50
21445;DHT22;10883;51.946;20.140;2023-01-31T13:40:29;7.20;99.90
21445;DHT22;10883;51.946;20.140;2023-01-31T13:43:01;6.50;99.90
21445;DHT22;10883;51.946;20.140;2023-01-31T13:45:32;6.00;99.90
21445;DHT22;10883;51.946;20.140;2023-01-31T13:48:36;5.80;99.90
21445;DHT22;10883;51.946;20.140;2023-01-31T13:51:23;5.50;99.90
21445;DHT22;10883;51.946;20.140;2023-01-31T13:53:58;5.20;99.90
21445;DHT22;10883;51.946;20.140;2023-01-31T13:56:31;5.10;99.90
21445;DHT22;10883;51.946;20.140;2023-01-31T13:58:59;5.00;99.90
21445;DHT22;10883;51.946;20.140;2023-01-31T14:01:27;4.90;99.90
21445;DHT22;10883;51.946;20.140;2023-01-31T14:09:38;4.40;99.90
21445;DHT22;10883;51.946;20.140;2023-01-31T14:23:27;4.10;99.90
21445;DHT22;10883;51.946;20.140;2023-01-31T14:25:54;4.10;99.90
21445;DHT22;10883;51.946;20.140;2023-01-31T14:28:20;4.10;99.90
21445;DHT22;10883;51.946;20.140;2023-01-31T14:30:46;4.10;99.90
21445;DHT22;10883;51.946;20.140;2023-01-31T14:36:11;3.90;99.90
21445;DHT22;10883;51.946;20.140;2023-01-31T14:38:44;3.90;99.90
21445;DHT22;10883;51.946;20.140;2023-01-31T14:47:09;3.80;99.90
21445;DHT22;10883;51.946;20.140;2023-01-31T14:52:39;3.70;99.90
21445;DHT22;10883;51.946;20.140;2023-01-31T14:57:55;3.60;99.90
21445;DHT22;10883;51.946;20.140;2023-01-31T15:00:31;3.50;99.90
21445;DHT22;10883;51.946;20.140;2023-01-31T15:03:07;3.50;99.90
21445;DHT22;10883;51.946;20.140;2023-01-31T15:11:03;3.30;99.90
21445;DHT22;10883;51.946;20.140;2023-01-31T15:16:04;3.10;99.90
21445;DHT22;10883;51.946;20.140;2023-01-31T15:18:30;3.00;99.90
21445;DHT22;10883;51.946;20.140;2023-01-31T15:21:00;2.90;99.90
21445;DHT22;10883;51.946;20.140;2023-01-31T15:23:28;2.90;99.90
21445;DHT22;10883;51.946;20.140;2023-01-31T15:25:57;2.90;99.90
21445;DHT22;10883;51.946;20.140;2023-01-31T15:28:33;2.80;99.90
21445;DHT22;10883;51.946;20.140;2023-01-31T15:31:04;2.70;99.90
21445;DHT22;10883;51.946;20.140;2023-01-31T15:33:42;2.70;99.90
21445;DHT22;10883;51.946;20.140;2023-01-31T15:36:21;2.70;99.90
21445;DHT22;10883;51.946;20.140;2023-01-31T15:38:53;2.70;99.90
21445;DHT22;10883;51.946;20.140;2023-01-31T15:41:24;2.70;99.90
21445;DHT22;10883;51.946;20.140;2023-01-31T15:43:55;2.70;99.90
21445;DHT22;10883;51.946;20.140;2023-01-31T15:48:52;2.80;99.90
21445;DHT22;10883;51.946;20.140;2023-01-31T15:51:18;2.80;99.90
21445;DHT22;10883;51.946;20.140;2023-01-31T15:53:44;2.80;99.90
21445;DHT22;10883;51.946;20.140;2023-01-31T15:56:23;2.80;99.90
21445;DHT22;10883;51.946;20.140;2023-01-31T15:58:52;2.80;99.90
21445;DHT22;10883;51.946;20.140;2023-01-31T16:01:18;2.80;99.90
21445;DHT22;10883;51.946;20.140;2023-01-31T16:03:53;2.80;99.90
21445;DHT22;10883;51.946;20.140;2023-01-31T16:06:34;2.80;99.90
21445;DHT22;10883;51.946;20.140;2023-01-31T16:09:02;2.80;99.90
21445;DHT22;10883;51.946;20.140;2023-01-31T16:11:30;2.80;99.90
21445;DHT22;10883;51.946;20.140;2023-01-31T16:13:58;2.70;99.90
21445;DHT22;10883;51.946;20.140;2023-01-31T16:16:26;2.70;99.90
21445;DHT22;10883;51.946;20.140;2023-01-31T16:18:55;2.60;99.90
21445;DHT22;10883;51.946;20.140;2023-01-31T16:21:26;2.60;99.90
21445;DHT22;10883;51.946;20.140;2023-01-31T16:24:07;2.50;99.90
21445;DHT22;10883;51.946;20.140;2023-01-31T16:26:36;2.60;99.90
21445;DHT22;10883;51.946;20.140;2023-01-31T16:29:17;2.60;99.90
21445;DHT22;10883;51.946;20.140;2023-01-31T16:31:47;2.60;99.90
21445;DHT22;10883;51.946;20.140;2023-01-31T16:34:33;2.60;99.90
21445;DHT22;10883;51.946;20.140;2023-01-31T16:37:05;2.70;99.90
21445;DHT22;10883;51.946;20.140;2023-01-31T16:39:47;2.70;99.90
21445;DHT22;10883;51.946;20.140;2023-01-31T16:42:20;2.70;99.90
21445;DHT22;10883;51.946;20.140;2023-01-31T16:44:49;2.80;99.90
21445;DHT22;10883;51.946;20.140;2023-01-31T16:47:46;2.80;99.90
21445;DHT22;10883;51.946;20.140;2023-01-31T16:52:49;2.90;99.90
21445;DHT22;10883;51.946;20.140;2023-01-31T16:55:18;2.90;99.90
21445;DHT22;10883;51.946;20.140;2023-01-31T16:57:44;2.90;99.90
21445;DHT22;10883;51.946;20.140;2023-01-31T17:02:49;2.90;99.90
21445;DHT22;10883;51.946;20.140;2023-01-31T17:07:45;3.00;99.90
21445;DHT22;10883;51.946;20.140;2023-01-31T17:10:30;3.00;99.90
21445;DHT22;10883;51.946;20.140;2023-01-31T17:13:04;3.00;99.90
21445;DHT22;10883;51.946;20.140;2023-01-31T17:15:30;3.00;99.90
21445;DHT22;10883;51.946;20.140;2023-01-31T17:17:56;3.00;99.90
21445;DHT22;10883;51.946;20.140;2023-01-31T17:20:23;3.00;99.90
21445;DHT22;10883;51.946;20.140;2023-01-31T17:22:49;2.90;99.90
21445;DHT22;10883;51.946;20.140;2023-01-31T17:25:15;2.80;99.90
21445;DHT22;10883;51.946;20.140;2023-01-31T17:27:42;2.80;99.90
21445;DHT22;10883;51.946;20.140;2023-01-31T17:30:09;2.80;99.90
21445;DHT22;10883;51.946;20.140;2023-01-31T17:32:35;2.80;99.90
21445;DHT22;10883;51.946;20.140;2023-01-31T17:35:01;2.70;99.90
21445;DHT22;10883;51.946;20.140;2023-01-31T17:37:26;2.70;99.90
21445;DHT22;10883;51.946;20.140;2023-01-31T17:39:52;2.70;99.90
21445;DHT22;10883;51.946;20.140;2023-01-31T17:42:19;2.70;99.90
21445;DHT22;10883;51.946;20.140;2023-01-31T17:44:46;2.70;99.90
21445;DHT22;10883;51.946;20.140;2023-01-31T17:47:14;2.70;99.90
21445;DHT22;10883;51.946;20.140;2023-01-31T17:49:39;2.70;99.90
21445;DHT22;10883;51.946;20.140;2023-01-31T17:52:05;2.60;99.90
21445;DHT22;10883;51.946;20.140;2023-01-31T17:54:31;2.60;99.90
21445;DHT22;10883;51.946;20.140;2023-01-31T17:56:57;2.60;99.90
21445;DHT22;10883;51.946;20.140;2023-01-31T17:59:22;2.60;99.90
21445;DHT22;10883;51.946;20.140;2023-01-31T18:01:48;2.60;99.90
21445;DHT22;10883;51.946;20.140;2023-01-31T18:04:14;2.50;99.90
21445;DHT22;10883;51.946;20.140;2023-01-31T18:06:40;2.50;99.90
21445;DHT22;10883;51.946;20.140;2023-01-31T18:09:06;2.50;99.90
21445;DHT22;10883;51.946;20.140;2023-01-31T18:11:34;2.50;99.90
21445;DHT22;10883;51.946;20.140;2023-01-31T18:14:00;2.40;99.90
21445;DHT22;10883;51.946;20.140;2023-01-31T18:16:29;2.40;99.90
21445;DHT22;10883;51.946;20.140;2023-01-31T18:18:55;2.40;99.90
21445;DHT22;10883;51.946;20.140;2023-01-31T18:21:21;2.40;99.90
21445;DHT22;10883;51.946;20.140;2023-01-31T18:23:49;2.40;99.90
21445;DHT22;10883;51.946;20.140;2023-01-31T18:26:15;2.40;99.90
21445;DHT22;10883;51.946;20.140;2023-01-31T18:28:42;2.40;99.90
21445;DHT22;10883;51.946;20.140;2023-01-31T18:31:08;2.40;99.90
21445;DHT22;10883;51.946;20.140;2023-01-31T18:33:36;2.40;99.90
21445;DHT22;10883;51.946;20.140;2023-01-31T18:36:02;2.40;99.90
21445;DHT22;10883;51.946;20.140;2023-01-31T18:38:34;2.40;99.90
21445;DHT22;10883;51.946;20.140;2023-01-31T18:41:05;2.50;99.90
21445;DHT22;10883;51.946;20.140;2023-01-31T18:43:31;2.40;99.90
21445;DHT22;10883;51.946;20.140;2023-01-31T18:45:56;2.50;99.90
21445;DHT22;10883;51.946;20.140;2023-01-31T18:48:22;2.60;99.90
21445;DHT22;10883;51.946;20.140;2023-01-31T18:50:48;2.50;99.90
21445;DHT22;10883;51.946;20.140;2023-01-31T18:53:14;2.50;99.90
21445;DHT22;10883;51.946;20.140;2023-01-31T18:55:39;2.60;99.90